createdAt,value
2022-12-31T00:01:50.175Z,0.60
2022-12-31T00:04:19.395Z,0.60
2022-12-31T00:06:48.040Z,0.80
2022-12-31T00:09:15.858Z,0.67
2022-12-31T00:11:43.688Z,0.67
2022-12-31T00:14:11.511Z,0.53
2022-12-31T00:16:41.948Z,0.53
2022-12-31T00:19:11.622Z,0.20
2022-12-31T00:21:41.079Z,0.27
2022-12-31T00:24:09.459Z,0.67
2022-12-31T00:26:37.343Z,0.53
2022-12-31T00:29:06.435Z,1.03
2022-12-31T00:31:36.180Z,0.50
2022-12-31T00:34:05.005Z,0.70
2022-12-31T00:36:35.651Z,0.30
2022-12-31T00:39:07.203Z,0.23
2022-12-31T00:41:35.477Z,0.30
2022-12-31T00:44:03.304Z,0.73
2022-12-31T00:46:31.807Z,0.73
2022-12-31T00:48:59.669Z,0.40
2022-12-31T00:51:28.301Z,0.63
2022-12-31T00:53:56.553Z,0.73
2022-12-31T00:56:28.381Z,1.07
2022-12-31T00:58:56.233Z,1.03
2022-12-31T01:01:25.901Z,0.50
2022-12-31T01:03:56.808Z,0.60
2022-12-31T01:06:24.820Z,0.40
2022-12-31T01:08:55.534Z,0.60
2022-12-31T01:11:29.249Z,0.60
2022-12-31T01:13:59.198Z,1.40
2022-12-31T01:16:29.951Z,0.77
2022-12-31T01:18:59.681Z,1.10
2022-12-31T01:21:27.857Z,1.00
2022-12-31T01:23:55.803Z,0.30
2022-12-31T01:26:24.923Z,0.70
2022-12-31T01:28:52.951Z,2.10
2022-12-31T01:31:22.116Z,1.60
2022-12-31T01:33:50.789Z,0.57
2022-12-31T01:36:25.384Z,0.40
2022-12-31T01:38:54.574Z,0.80
2022-12-31T01:41:26.434Z,0.47
2022-12-31T01:43:56.252Z,0.37
2022-12-31T01:46:30.186Z,1.37
2022-12-31T01:49:01.314Z,1.03
2022-12-31T01:51:33.150Z,1.83
2022-12-31T01:54:02.618Z,0.93
2022-12-31T01:56:32.064Z,1.17
2022-12-31T01:59:00.522Z,0.43
2022-12-31T02:01:31.950Z,0.93
2022-12-31T02:04:04.333Z,2.20
2022-12-31T02:06:36.069Z,0.83
2022-12-31T02:09:03.996Z,0.70
2022-12-31T02:11:37.830Z,0.60
2022-12-31T02:14:09.346Z,1.47
2022-12-31T02:16:45.154Z,1.30
2022-12-31T02:19:41.694Z,1.10
2022-12-31T02:22:22.726Z,0.60
2022-12-31T02:25:12.031Z,0.53
2022-12-31T02:27:53.693Z,0.80
2022-12-31T02:30:24.810Z,2.27
2022-12-31T02:33:13.295Z,1.07
2022-12-31T02:35:49.157Z,0.83
2022-12-31T02:38:21.647Z,0.63
2022-12-31T02:40:49.684Z,0.43
2022-12-31T02:43:17.689Z,0.67
2022-12-31T02:45:51.337Z,1.17
2022-12-31T02:48:33.479Z,1.73
2022-12-31T02:51:13.220Z,0.63
2022-12-31T02:53:57.648Z,1.10
2022-12-31T02:56:32.285Z,0.30
2022-12-31T02:59:23.293Z,0.70
2022-12-31T03:02:16.838Z,1.47
2022-12-31T03:04:48.720Z,0.70
2022-12-31T03:07:20.441Z,0.93
2022-12-31T03:09:48.532Z,0.40
2022-12-31T03:12:34.842Z,0.97
2022-12-31T03:15:06.800Z,1.53
2022-12-31T03:17:36.094Z,1.70
2022-12-31T03:20:21.530Z,0.80
2022-12-31T03:22:49.319Z,0.30
2022-12-31T03:25:33.172Z,0.43
2022-12-31T03:28:02.131Z,0.93
2022-12-31T03:30:31.805Z,0.50
2022-12-31T03:33:01.390Z,0.63
2022-12-31T03:35:30.767Z,0.40
2022-12-31T03:37:58.630Z,0.80
2022-12-31T03:40:28.912Z,0.93
2022-12-31T03:42:56.964Z,0.47
2022-12-31T03:45:25.312Z,0.93
2022-12-31T03:47:53.335Z,0.57
2022-12-31T03:50:22.545Z,0.30
2022-12-31T03:52:50.323Z,1.03
2022-12-31T03:55:18.221Z,1.73
2022-12-31T03:57:46.096Z,0.30
2022-12-31T04:00:18.545Z,1.80
2022-12-31T04:02:46.743Z,0.80
2022-12-31T04:05:15.121Z,0.77
2022-12-31T04:07:44.471Z,0.27
2022-12-31T04:10:14.980Z,0.73
2022-12-31T04:12:43.143Z,1.70
2022-12-31T04:15:14.248Z,0.57
2022-12-31T04:17:42.061Z,1.17
2022-12-31T04:20:11.049Z,0.93
2022-12-31T04:22:38.928Z,0.40
2022-12-31T04:25:11.313Z,1.13
2022-12-31T04:27:40.122Z,1.73
2022-12-31T04:30:09.110Z,2.67
2022-12-31T04:32:36.899Z,3.63
2022-12-31T04:35:05.118Z,1.70
2022-12-31T04:37:32.954Z,1.63
2022-12-31T04:40:05.876Z,1.30
2022-12-31T04:42:35.872Z,0.83
2022-12-31T04:45:04.283Z,0.70
2022-12-31T04:47:32.307Z,0.87
2022-12-31T04:50:00.138Z,1.00
2022-12-31T04:52:27.936Z,3.60
2022-12-31T04:54:55.766Z,0.50
2022-12-31T04:57:23.590Z,3.83
2022-12-31T04:59:52.877Z,5.20
2022-12-31T05:02:20.793Z,3.03
2022-12-31T05:04:48.687Z,1.43
2022-12-31T05:07:16.472Z,0.67
2022-12-31T05:09:44.277Z,1.33
2022-12-31T05:12:12.120Z,0.70
2022-12-31T05:14:39.932Z,0.30
2022-12-31T05:17:09.051Z,0.80
2022-12-31T05:19:36.841Z,1.37
2022-12-31T05:22:22.199Z,0.80
2022-12-31T05:24:52.087Z,0.83
2022-12-31T05:27:20.020Z,0.80
2022-12-31T05:29:47.925Z,2.40
2022-12-31T05:32:17.384Z,0.60
2022-12-31T05:34:45.373Z,1.30
2022-12-31T05:37:13.184Z,0.93
2022-12-31T05:39:40.987Z,0.73
2022-12-31T05:42:08.949Z,0.97
2022-12-31T05:44:36.776Z,0.63
2022-12-31T05:47:04.667Z,2.67
2022-12-31T05:49:33.869Z,2.37
2022-12-31T05:52:01.742Z,1.17
2022-12-31T05:54:29.605Z,2.40
2022-12-31T05:56:57.519Z,0.67
2022-12-31T05:59:25.354Z,0.70
2022-12-31T06:01:53.140Z,1.20
2022-12-31T06:04:20.980Z,1.40
2022-12-31T06:06:50.215Z,0.73
2022-12-31T06:09:19.176Z,0.40
2022-12-31T06:11:47.721Z,0.60
2022-12-31T06:14:15.871Z,0.43
2022-12-31T06:16:44.285Z,0.43
2022-12-31T06:19:12.055Z,0.20
2022-12-31T06:21:39.865Z,0.50
2022-12-31T06:24:09.435Z,0.30
2022-12-31T06:26:37.794Z,0.40
2022-12-31T06:29:05.822Z,0.63
2022-12-31T06:31:34.118Z,0.73
2022-12-31T06:34:01.950Z,1.30
2022-12-31T06:36:29.877Z,1.80
2022-12-31T06:38:57.664Z,0.60
2022-12-31T06:41:26.818Z,1.23
2022-12-31T06:43:54.623Z,0.53
2022-12-31T06:46:22.521Z,1.60
2022-12-31T06:48:50.440Z,0.70
2022-12-31T06:51:20.471Z,0.40
2022-12-31T06:53:49.837Z,0.60
2022-12-31T06:56:19.821Z,0.73
2022-12-31T06:58:50.370Z,3.53
2022-12-31T07:01:42.011Z,0.53
2022-12-31T07:04:34.968Z,0.40
2022-12-31T07:07:08.915Z,0.93
2022-12-31T07:09:44.610Z,2.60
2022-12-31T07:12:21.236Z,1.07
2022-12-31T07:14:57.894Z,1.57
2022-12-31T07:17:31.431Z,0.50
2022-12-31T07:20:04.922Z,0.60
2022-12-31T07:22:33.228Z,0.40
2022-12-31T07:25:01.843Z,1.90
2022-12-31T07:27:40.852Z,2.53
2022-12-31T07:30:14.684Z,0.87
2022-12-31T07:33:05.600Z,3.50
2022-12-31T07:35:45.986Z,4.27
2022-12-31T07:38:21.832Z,1.80
2022-12-31T07:41:05.562Z,0.60
2022-12-31T07:43:48.739Z,0.83
2022-12-31T07:46:25.382Z,0.87
2022-12-31T07:48:53.773Z,1.40
2022-12-31T07:51:22.341Z,4.83
2022-12-31T07:53:50.167Z,2.00
2022-12-31T07:56:18.023Z,1.40
2022-12-31T07:58:59.965Z,1.23
2022-12-31T08:01:40.541Z,4.20
2022-12-31T08:04:17.356Z,3.13
2022-12-31T08:06:52.672Z,1.73
2022-12-31T08:09:38.894Z,1.13
2022-12-31T08:12:08.623Z,1.03
2022-12-31T08:14:42.154Z,1.10
2022-12-31T08:17:14.283Z,0.80
2022-12-31T08:19:42.733Z,1.60
2022-12-31T08:22:40.096Z,0.80
2022-12-31T08:25:17.664Z,1.70
2022-12-31T08:27:53.585Z,5.27
2022-12-31T08:30:22.624Z,2.23
2022-12-31T08:32:59.538Z,1.00
2022-12-31T08:35:45.993Z,2.63
2022-12-31T08:38:25.984Z,3.03
2022-12-31T08:41:02.295Z,2.17
2022-12-31T08:43:41.981Z,1.50
2022-12-31T08:46:18.165Z,0.90
2022-12-31T08:48:48.394Z,2.57
2022-12-31T08:51:20.809Z,0.57
2022-12-31T08:53:49.565Z,0.60
2022-12-31T08:56:28.438Z,0.50
2022-12-31T08:59:09.389Z,0.50
2022-12-31T09:01:51.436Z,0.93
2022-12-31T09:04:26.972Z,0.70
2022-12-31T09:06:59.004Z,1.83
2022-12-31T09:09:38.334Z,0.60
2022-12-31T09:12:15.030Z,0.63
2022-12-31T09:14:47.024Z,1.10
2022-12-31T09:17:34.625Z,0.50
2022-12-31T09:20:05.167Z,1.20
2022-12-31T09:22:33.330Z,1.70
2022-12-31T09:25:01.469Z,1.13
2022-12-31T09:27:36.063Z,1.47
2022-12-31T09:30:06.772Z,1.20
2022-12-31T09:32:42.982Z,2.30
2022-12-31T09:35:23.065Z,1.50
2022-12-31T09:37:56.091Z,1.10
2022-12-31T09:40:51.776Z,5.50
2022-12-31T09:44:05.454Z,4.47
2022-12-31T09:47:12.838Z,2.47
2022-12-31T09:50:33.048Z,3.03
2022-12-31T09:53:25.636Z,2.20
2022-12-31T09:55:57.885Z,1.53
2022-12-31T09:58:38.415Z,3.23
2022-12-31T10:01:18.953Z,2.33
2022-12-31T10:04:11.411Z,4.83
2022-12-31T10:06:50.541Z,3.33
2022-12-31T10:09:31.732Z,4.20
2022-12-31T10:12:15.226Z,1.90
2022-12-31T10:14:58.305Z,1.30
2022-12-31T10:17:41.035Z,2.27
2022-12-31T10:20:45.264Z,3.27
2022-12-31T10:23:53.250Z,1.73
2022-12-31T10:26:49.826Z,4.97
2022-12-31T10:29:31.871Z,4.80
2022-12-31T10:32:15.273Z,2.60
2022-12-31T10:34:55.618Z,0.70
2022-12-31T10:37:27.238Z,1.23
2022-12-31T10:40:07.634Z,1.20
2022-12-31T10:43:06.501Z,1.10
2022-12-31T10:46:09.210Z,1.03
2022-12-31T10:49:01.331Z,1.93
2022-12-31T10:52:03.311Z,2.10
2022-12-31T10:55:19.518Z,0.80
2022-12-31T10:58:04.782Z,0.47
2022-12-31T11:00:39.313Z,0.50
2022-12-31T11:03:39.554Z,0.90
2022-12-31T11:06:41.038Z,0.53
2022-12-31T11:09:47.637Z,0.80
2022-12-31T11:12:38.833Z,2.20
2022-12-31T11:15:38.715Z,0.93
2022-12-31T11:18:18.846Z,0.93
2022-12-31T11:21:04.483Z,0.30
2022-12-31T11:23:40.407Z,0.43
2022-12-31T11:26:17.021Z,1.83
2022-12-31T11:29:05.814Z,0.40
2022-12-31T11:32:00.154Z,0.30
2022-12-31T11:34:50.334Z,0.40
2022-12-31T11:37:42.918Z,0.40
2022-12-31T11:40:35.420Z,0.73
2022-12-31T11:43:11.969Z,0.67
2022-12-31T11:45:53.891Z,0.53
2022-12-31T11:48:31.315Z,0.63
2022-12-31T11:51:10.576Z,0.50
2022-12-31T11:53:57.504Z,1.13
2022-12-31T11:56:28.335Z,1.47
2022-12-31T11:58:57.311Z,0.50
2022-12-31T12:01:28.874Z,0.60
2022-12-31T12:03:58.069Z,1.33
2022-12-31T12:06:28.762Z,0.57
2022-12-31T12:09:00.717Z,0.80
2022-12-31T12:11:31.438Z,0.30
2022-12-31T12:13:59.349Z,0.80
2022-12-31T12:16:29.000Z,0.30
2022-12-31T12:19:06.742Z,1.27
2022-12-31T12:21:35.244Z,0.80
2022-12-31T12:24:04.948Z,0.40
2022-12-31T12:26:36.750Z,0.67
2022-12-31T12:29:18.496Z,0.50
2022-12-31T12:31:56.171Z,0.30
2022-12-31T12:34:27.269Z,0.40
2022-12-31T12:36:55.068Z,0.40
2022-12-31T12:39:26.387Z,0.30
2022-12-31T12:42:05.490Z,0.57
2022-12-31T12:44:35.737Z,0.90
2022-12-31T12:47:06.041Z,1.60
2022-12-31T12:49:40.966Z,0.97
2022-12-31T12:52:30.623Z,0.73
2022-12-31T12:55:13.569Z,0.50
2022-12-31T12:57:47.272Z,0.30
2022-12-31T13:00:21.037Z,0.40
2022-12-31T13:03:27.293Z,0.63
2022-12-31T13:06:26.434Z,0.83
2022-12-31T13:09:09.972Z,0.53
2022-12-31T13:11:46.362Z,0.27
2022-12-31T13:14:23.058Z,0.53
2022-12-31T13:16:59.714Z,0.40
2022-12-31T13:19:38.140Z,0.30
2022-12-31T13:22:15.513Z,2.10
2022-12-31T13:24:55.210Z,0.77
2022-12-31T13:27:29.148Z,0.60
2022-12-31T13:30:01.802Z,0.70
2022-12-31T13:32:37.740Z,0.50
2022-12-31T13:35:22.567Z,1.73
2022-12-31T13:38:00.281Z,0.60
2022-12-31T13:40:48.069Z,1.00
2022-12-31T13:43:21.654Z,0.27
2022-12-31T13:45:58.421Z,0.47
2022-12-31T13:48:36.855Z,1.67
2022-12-31T13:51:12.475Z,0.70
2022-12-31T13:53:48.371Z,1.20
2022-12-31T13:56:22.041Z,0.67
2022-12-31T13:58:55.362Z,0.60
2022-12-31T14:01:33.660Z,0.80
2022-12-31T14:04:08.970Z,1.27
2022-12-31T14:06:43.629Z,0.70
2022-12-31T14:09:16.959Z,1.47
2022-12-31T14:11:59.726Z,1.70
2022-12-31T14:14:42.069Z,2.50
2022-12-31T14:17:20.419Z,4.30
2022-12-31T14:20:01.473Z,1.43
2022-12-31T14:22:36.797Z,0.57
2022-12-31T14:25:17.290Z,0.97
2022-12-31T14:27:47.568Z,2.50
2022-12-31T14:30:18.847Z,0.80
2022-12-31T14:33:13.723Z,0.40
2022-12-31T14:35:54.459Z,0.40
2022-12-31T14:38:34.770Z,1.00
2022-12-31T14:41:19.252Z,1.33
2022-12-31T14:43:57.286Z,1.63
2022-12-31T14:46:30.872Z,2.67
2022-12-31T14:49:12.016Z,1.77
2022-12-31T14:51:39.892Z,4.37
2022-12-31T14:54:28.713Z,1.50
2022-12-31T14:56:58.294Z,0.93
2022-12-31T14:59:28.750Z,0.63
2022-12-31T15:01:58.700Z,1.33
2022-12-31T15:04:33.674Z,1.60
2022-12-31T15:07:11.740Z,1.20
2022-12-31T15:09:51.510Z,2.67
2022-12-31T15:12:34.333Z,0.80
2022-12-31T15:15:16.155Z,1.00
2022-12-31T15:17:55.497Z,1.37
2022-12-31T15:20:39.431Z,1.83
2022-12-31T15:23:15.578Z,1.13
2022-12-31T15:25:48.946Z,1.70
2022-12-31T15:28:34.567Z,1.13
2022-12-31T15:31:14.441Z,1.00
2022-12-31T15:33:56.851Z,1.13
2022-12-31T15:36:27.002Z,2.03
2022-12-31T15:39:08.668Z,2.60
2022-12-31T15:42:18.248Z,1.00
2022-12-31T15:44:44.477Z,2.20
2022-12-31T15:47:17.997Z,2.73
2022-12-31T15:49:47.956Z,3.60
2022-12-31T15:52:21.318Z,3.57
2022-12-31T15:54:51.562Z,1.40
2022-12-31T15:57:21.894Z,2.13
2022-12-31T15:59:51.101Z,0.50
2022-12-31T16:02:22.837Z,0.93
2022-12-31T16:04:51.446Z,2.80
2022-12-31T16:07:19.727Z,1.03
2022-12-31T16:09:52.259Z,1.53
2022-12-31T16:12:26.533Z,1.23
2022-12-31T16:15:00.762Z,1.50
2022-12-31T16:17:31.870Z,1.00
2022-12-31T16:20:01.458Z,1.47
2022-12-31T16:22:31.204Z,1.60
2022-12-31T16:27:50.727Z,3.10
2022-12-31T16:30:23.703Z,4.47
2022-12-31T16:32:52.189Z,6.43
2022-12-31T16:35:26.078Z,8.17
2022-12-31T16:38:04.701Z,6.27
2022-12-31T16:40:32.508Z,12.30
2022-12-31T16:43:01.185Z,21.73
2022-12-31T16:45:35.726Z,7.80
2022-12-31T16:48:16.381Z,11.30
2022-12-31T16:50:46.879Z,12.33
2022-12-31T16:53:18.405Z,9.80
2022-12-31T16:55:53.539Z,9.33
2022-12-31T16:58:26.044Z,7.23
2022-12-31T17:00:56.979Z,10.10
2022-12-31T17:03:26.833Z,7.70
2022-12-31T17:05:58.239Z,5.00
2022-12-31T17:08:29.314Z,5.47
2022-12-31T17:10:57.498Z,3.40
2022-12-31T17:13:30.504Z,5.10
2022-12-31T17:16:01.812Z,5.50
2022-12-31T17:18:36.812Z,10.17
2022-12-31T17:21:09.714Z,6.77
2022-12-31T17:23:40.612Z,6.67
2022-12-31T17:26:11.876Z,4.20
2022-12-31T17:28:44.315Z,3.03
2022-12-31T17:31:34.193Z,1.63
2022-12-31T17:34:22.128Z,2.63
2022-12-31T17:37:00.347Z,3.13
2022-12-31T17:39:39.935Z,2.33
2022-12-31T17:42:11.035Z,2.20
2022-12-31T17:44:40.652Z,5.13
2022-12-31T17:47:13.989Z,4.70
2022-12-31T17:49:45.055Z,3.83
2022-12-31T17:52:14.178Z,6.00
2022-12-31T17:54:42.282Z,5.60
2022-12-31T17:57:23.769Z,5.47
2022-12-31T17:59:51.685Z,5.57
2022-12-31T18:02:21.233Z,6.57
2022-12-31T18:04:49.132Z,6.60
2022-12-31T18:07:16.924Z,8.80
2022-12-31T18:09:44.739Z,12.63
2022-12-31T18:12:15.211Z,8.23
2022-12-31T18:14:44.027Z,19.60
2022-12-31T18:17:16.180Z,6.10
2022-12-31T18:20:04.130Z,4.57
2022-12-31T18:22:33.250Z,3.03
2022-12-31T18:25:01.192Z,4.00
2022-12-31T18:27:30.606Z,2.40
2022-12-31T18:30:04.298Z,2.40
2022-12-31T18:32:34.165Z,1.93
2022-12-31T18:35:03.469Z,1.70
2022-12-31T18:37:33.186Z,4.13
2022-12-31T18:40:00.961Z,3.87
2022-12-31T18:42:29.712Z,3.67
2022-12-31T18:44:57.526Z,6.07
2022-12-31T18:47:25.364Z,5.23
2022-12-31T18:49:53.215Z,3.97
2022-12-31T18:52:23.626Z,19.87
2022-12-31T18:54:51.463Z,5.50
2022-12-31T18:57:19.236Z,4.50
2022-12-31T18:59:47.000Z,3.63
2022-12-31T19:02:18.746Z,2.77
2022-12-31T19:04:46.905Z,2.90
2022-12-31T19:07:14.893Z,2.33
2022-12-31T19:09:46.073Z,2.97
2022-12-31T19:12:15.823Z,1.97
2022-12-31T19:14:43.796Z,2.17
2022-12-31T19:17:11.639Z,1.93
2022-12-31T19:19:39.532Z,2.70
2022-12-31T19:22:07.431Z,1.60
2022-12-31T19:24:35.218Z,4.33
2022-12-31T19:27:04.488Z,1.87
2022-12-31T19:29:32.305Z,2.70
2022-12-31T19:32:02.165Z,3.17
2022-12-31T19:34:29.994Z,6.40
2022-12-31T19:36:58.119Z,3.10
2022-12-31T19:39:25.910Z,4.33
2022-12-31T19:41:58.798Z,4.07
2022-12-31T19:44:28.798Z,5.87
2022-12-31T19:46:56.630Z,2.13
2022-12-31T19:49:24.597Z,1.43
2022-12-31T19:51:52.410Z,4.97
2022-12-31T19:54:20.269Z,2.17
2022-12-31T19:56:48.121Z,8.00
2022-12-31T19:59:15.936Z,13.37
2022-12-31T20:01:45.203Z,10.97
2022-12-31T20:04:13.044Z,9.20
2022-12-31T20:06:40.820Z,15.50
2022-12-31T20:09:08.610Z,6.83
2022-12-31T20:11:36.506Z,1.13
2022-12-31T20:14:04.351Z,1.17
2022-12-31T20:16:33.844Z,6.07
2022-12-31T20:19:03.222Z,2.43
2022-12-31T20:21:31.321Z,1.93
2022-12-31T20:23:59.256Z,5.53
2022-12-31T20:26:27.703Z,2.03
2022-12-31T20:28:55.572Z,4.40
2022-12-31T20:31:25.557Z,3.17
2022-12-31T20:33:54.699Z,3.93
2022-12-31T20:36:24.343Z,7.10
2022-12-31T20:38:52.278Z,2.07
2022-12-31T20:41:23.330Z,2.00
2022-12-31T20:43:51.303Z,3.43
2022-12-31T20:46:21.254Z,4.73
2022-12-31T20:48:50.620Z,4.67
2022-12-31T20:51:19.475Z,10.20
2022-12-31T20:53:50.890Z,13.97
2022-12-31T20:56:19.739Z,16.13
2022-12-31T20:58:47.893Z,9.80
2022-12-31T21:01:17.194Z,9.60
2022-12-31T21:04:04.830Z,11.50
2022-12-31T21:06:34.852Z,8.40
2022-12-31T21:09:06.460Z,9.93
2022-12-31T21:11:52.292Z,9.53
2022-12-31T21:14:20.158Z,7.87
2022-12-31T21:16:48.363Z,10.13
2022-12-31T21:19:16.338Z,15.07
2022-12-31T21:21:44.218Z,12.13
2022-12-31T21:24:15.525Z,18.70
2022-12-31T21:26:46.850Z,10.70
2022-12-31T21:29:14.679Z,7.57
2022-12-31T21:31:43.155Z,11.00
2022-12-31T21:34:11.107Z,7.80
2022-12-31T21:36:39.088Z,10.93
2022-12-31T21:39:06.903Z,5.00
2022-12-31T21:41:54.195Z,5.07
2022-12-31T21:44:24.051Z,7.97
2022-12-31T21:47:33.217Z,6.70
2022-12-31T21:49:44.175Z,5.90
2022-12-31T21:52:27.097Z,4.73
2022-12-31T21:55:12.904Z,4.03
2022-12-31T21:58:23.689Z,14.40
2022-12-31T22:00:48.984Z,7.00
2022-12-31T22:03:27.600Z,10.17
2022-12-31T22:05:58.549Z,4.30
2022-12-31T22:08:27.573Z,3.03
2022-12-31T22:10:56.062Z,2.57
2022-12-31T22:13:25.251Z,3.63
2022-12-31T22:16:01.758Z,3.17
2022-12-31T22:18:33.991Z,3.00
2022-12-31T22:21:03.331Z,2.87
2022-12-31T22:23:32.150Z,2.90
2022-12-31T22:26:00.063Z,3.70
2022-12-31T22:28:39.120Z,4.77
2022-12-31T22:31:07.582Z,4.33
2022-12-31T22:33:35.648Z,4.57
2022-12-31T22:36:05.638Z,3.63
2022-12-31T22:38:34.125Z,4.43
2022-12-31T22:41:03.687Z,4.03
2022-12-31T22:43:35.432Z,4.60
2022-12-31T22:46:08.150Z,3.63
2022-12-31T22:48:36.020Z,5.70
2022-12-31T22:51:04.092Z,4.27
2022-12-31T22:53:31.978Z,3.43
2022-12-31T22:55:59.882Z,5.37
2022-12-31T22:58:28.014Z,7.13
2022-12-31T23:00:57.146Z,5.13
2022-12-31T23:03:24.992Z,18.37
2022-12-31T23:05:53.591Z,33.13
2022-12-31T23:08:23.550Z,13.83
2022-12-31T23:11:02.773Z,22.93
2022-12-31T23:13:51.183Z,30.13
2022-12-31T23:16:38.516Z,18.17
2022-12-31T23:19:24.791Z,11.80
2022-12-31T23:22:10.431Z,13.03
2022-12-31T23:24:38.577Z,22.57
2022-12-31T23:27:07.743Z,27.47
2022-12-31T23:29:43.738Z,7.97
2022-12-31T23:32:16.189Z,36.30
2022-12-31T23:34:45.061Z,16.53
2022-12-31T23:37:13.225Z,34.57
2022-12-31T23:39:41.094Z,13.47
2022-12-31T23:42:08.903Z,10.27
2022-12-31T23:44:36.873Z,6.07
2022-12-31T23:47:04.879Z,8.10
2022-12-31T23:49:34.252Z,19.80
2022-12-31T23:52:02.164Z,3.57
2022-12-31T23:54:30.009Z,4.40
2022-12-31T23:56:57.813Z,4.40
2022-12-31T23:59:25.654Z,4.70
